Time;durP1;ratioP1;P1;durP2;ratioP2;P2;SDS_P1;SDS_P2;PMS_P1;PMS_P2;Temp;Humidity;BMP_temperature;BMP_pressure;BME280_temperature;BME280_humidity;BME280_pressure;Samples;Min_cycle;Max_cycle;Signal;HPM_P1;HPM_P2
2021/11/13 08:41:02;;;;;;;5.25;0.98;;;;;;;6.65;63.67;100028.19;5018323;27;20912;-46
2021/11/13 08:43:28;;;;;;;6.00;1.48;;;;;;;6.19;66.41;100045.09;5022393;28;20041;-59
2021/11/13 08:45:54;;;;;;;5.82;1.50;;;;;;;5.95;67.14;100040.53;5020659;28;20622;-49
2021/11/13 08:48:20;;;;;;;6.13;1.63;;;;;;;5.51;68.46;100047.25;5007983;28;20174;-45
2021/11/13 08:50:46;;;;;;;5.30;1.55;;;;;;;6.40;66.71;100045.28;4427748;28;20089;-47
2021/11/13 08:53:13;;;;;;;6.65;1.52;;;;;;;5.92;65.99;100027.34;4279389;32;20526;-48
2021/11/13 08:55:39;;;;;;;5.47;1.60;;;;;;;5.68;67.41;100047.88;4277825;32;20496;-47
2021/11/13 08:58:06;;;;;;;5.80;1.90;;;;;;;5.65;68.18;100048.09;4282865;32;20050;-43
2021/11/13 09:00:46;;;;;;;7.45;1.48;;;;;;;6.36;65.45;100055.44;4345836;28;20078;-49
2021/11/13 09:03:16;;;;;;;8.38;1.98;;;;;;;6.11;67.36;100044.81;5026872;28;20038;-48
2021/11/13 09:05:43;;;;;;;11.20;2.10;;;;;;;5.83;67.16;99992.25;5021052;28;20057;-47
2021/11/13 09:08:09;;;;;;;8.70;1.75;;;;;;;6.09;65.05;100030.63;5020901;28;20057;-44
2021/11/13 09:10:38;;;;;;;5.22;1.63;;;;;;;4.98;68.38;99984.91;5021691;28;20132;-45
2021/11/13 09:13:04;;;;;;;6.80;1.70;;;;;;;6.35;66.72;100064.44;5020450;28;20476;-46
2021/11/13 09:15:32;;;;;;;6.85;1.88;;;;;;;6.56;64.27;100066.50;5019817;28;20076;-45
2021/11/13 09:17:57;;;;;;;5.32;1.50;;;;;;;5.48;68.65;100055.50;5022989;28;20088;-47
2021/11/13 09:20:24;;;;;;;6.03;1.83;;;;;;;5.96;68.30;100058.38;5020648;28;20328;-50
2021/11/13 09:22:50;;;;;;;6.15;2.53;;;;;;;5.61;68.26;100047.47;5020990;28;20046;-46
2021/11/13 09:25:17;;;;;;;9.40;1.95;;;;;;;7.30;63.33;100078.69;5020539;28;20512;-53
2021/11/13 09:27:44;;;;;;;6.07;1.83;;;;;;;6.63;65.11;100081.19;5021466;28;20080;-48
2021/11/13 09:30:16;;;;;;;6.68;1.67;;;;;;;6.27;68.12;100080.28;5021413;28;20042;-46
2021/11/13 09:32:43;;;;;;;9.10;2.42;;;;;;;6.45;67.48;100080.72;5021974;28;20132;-49
2021/11/13 09:35:10;;;;;;;7.38;2.10;;;;;;;7.54;62.20;100085.81;5020616;28;20529;-47
2021/11/13 09:37:37;;;;;;;6.40;1.92;;;;;;;6.41;75.36;100084.63;5019139;28;20135;-63
2021/11/13 09:57:57;;;;;;;9.95;2.00;;;;;;;5.75;67.63;100118.91;5114979;27;20432;-75
2021/11/13 10:00:29;;;;;;;6.60;1.73;;;;;;;5.37;67.79;100125.13;5095947;28;20052;-75
2021/11/13 10:02:56;;;;;;;6.63;1.70;;;;;;;5.40;67.70;100103.47;5111415;27;20064;-75
2021/11/13 10:05:23;;;;;;;7.95;1.75;;;;;;;5.60;67.40;100114.63;5096394;28;20508;-76
2021/11/13 10:07:49;;;;;;;6.45;1.70;;;;;;;5.86;66.20;100127.03;5084741;28;20044;-75
2021/11/13 10:10:36;;;;;;;8.77;1.65;;;;;;;5.53;67.23;100124.94;4739796;28;20102;-76
2021/11/13 10:13:03;;;;;;;6.82;1.83;;;;;;;5.07;67.01;100090.56;4280389;28;20129;-74
2021/11/13 10:15:34;;;;;;;8.38;1.83;;;;;;;5.41;67.02;100147.22;4311683;32;20061;-74
2021/11/13 10:18:07;;;;;;;8.15;2.10;;;;;;;5.36;66.81;100134.13;4311817;28;20116;-75
2021/11/13 10:20:33;;;;;;;6.10;1.45;;;;;;;5.48;66.60;100159.22;4314398;28;20568;-75
2021/11/13 10:22:59;;;;;;;6.88;1.70;;;;;;;5.30;67.19;100150.63;4306345;32;20062;-75
2021/11/13 10:25:25;;;;;;;6.47;1.80;;;;;;;5.32;67.95;100175.53;4290033;32;20551;-76
2021/11/13 10:28:12;;;;;;;7.03;1.83;;;;;;;5.10;68.26;100122.53;4306953;32;20053;-77
2021/11/13 10:30:40;;;;;;;6.80;2.00;;;;;;;5.21;68.88;100172.72;4323441;28;20053;-76
2021/11/13 10:33:06;;;;;;;10.82;2.20;;;;;;;5.26;69.55;100175.94;4306056;32;20057;-77
2021/11/13 10:35:57;;;;;;;10.48;3.00;;;;;;;5.26;69.91;100181.28;4308750;32;20130;-76
2021/11/13 10:38:23;;;;;;;9.32;2.63;;;;;;;5.26;70.06;100197.38;4298934;28;20050;-75
2021/11/13 10:41:06;;;;;;;10.68;2.88;;;;;;;5.29;69.79;100186.44;4303903;32;20169;-76
2021/11/13 10:43:31;;;;;;;9.13;2.55;;;;;;;5.10;70.11;100196.72;4314537;28;20069;-76
2021/11/13 10:45:59;;;;;;;8.25;2.67;;;;;;;5.01;71.12;100182.97;4299194;32;20091;-75
2021/11/13 10:48:25;;;;;;;9.32;3.03;;;;;;;5.06;70.66;100190.69;4300977;32;20123;-77
2021/11/13 10:51:01;;;;;;;9.77;3.33;;;;;;;5.06;71.28;100202.28;4303875;32;20456;-78
2021/11/13 10:53:27;;;;;;;7.97;2.80;;;;;;;5.10;71.40;100212.78;4302273;28;20056;-77
2021/11/13 10:56:20;;;;;;;8.43;2.92;;;;;;;5.00;70.82;100210.69;4300463;32;20060;-73
2021/11/13 10:58:57;;;;;;;7.55;2.55;;;;;;;5.36;70.42;100219.06;4293100;28;20058;-76
2021/11/13 11:01:23;;;;;;;7.13;1.83;;;;;;;5.07;71.06;100225.41;4291283;28;20701;-75
2021/11/13 11:03:51;;;;;;;7.53;2.03;;;;;;;4.82;71.93;100179.78;4288860;32;20064;-67
2021/11/13 11:06:25;;;;;;;7.95;2.13;;;;;;;5.10;71.87;100223.50;4295774;32;20611;-67
2021/11/13 11:08:51;;;;;;;8.32;2.20;;;;;;;5.27;70.72;100231.28;4294164;28;20138;-75
2021/11/13 11:11:35;;;;;;;7.80;2.08;;;;;;;5.13;71.17;100208.09;4282519;32;20503;-70
2021/11/13 11:14:03;;;;;;;7.22;1.83;;;;;;;5.38;70.39;100222.53;4285791;28;20112;-76
2021/11/13 11:16:31;;;;;;;7.35;2.00;;;;;;;5.43;69.21;100231.94;4266448;32;20062;-72
2021/11/13 11:19:01;;;;;;;9.05;1.60;;;;;;;5.96;66.98;100235.47;4300279;28;20190;-72
2021/11/13 11:21:47;;;;;;;6.80;1.90;;;;;;;5.52;68.76;100246.53;4283164;32;20081;-71
2021/11/13 11:24:18;;;;;;;8.02;1.67;;;;;;;5.40;69.29;100263.47;4291905;28;20096;-71
2021/11/13 11:26:46;;;;;;;8.63;1.90;;;;;;;5.33;69.36;100263.03;4284654;28;20623;-71
2021/11/13 11:29:12;;;;;;;8.38;1.77;;;;;;;5.17;69.37;100238.22;4283308;32;20065;-71
2021/11/13 11:31:47;;;;;;;8.05;1.90;;;;;;;5.19;70.26;100257.72;4271454;32;20634;-70
2021/11/13 11:34:23;;;;;;;7.05;1.90;;;;;;;5.22;68.93;100258.38;4290449;28;20077;-71
2021/11/13 11:36:49;;;;;;;8.27;2.38;;;;;;;5.22;68.61;100268.25;4292392;28;20070;-71
2021/11/13 11:39:16;;;;;;;6.40;2.05;;;;;;;4.96;69.33;100265.47;4283018;32;20607;-72
2021/11/13 11:41:42;;;;;;;7.85;1.67;;;;;;;4.94;69.29;100262.03;4274312;32;20057;-71
2021/11/13 11:44:08;;;;;;;6.05;1.38;;;;;;;5.00;68.42;100272.34;4271329;32;20065;-71
2021/11/13 11:46:33;;;;;;;5.95;1.60;;;;;;;4.94;69.47;100282.63;4282592;32;20081;-73
2021/11/13 11:48:59;;;;;;;6.55;2.00;;;;;;;4.84;70.25;100266.28;4283861;32;20549;-71
2021/11/13 11:51:26;;;;;;;7.78;2.40;;;;;;;4.94;71.06;100277.25;4281597;32;20069;-68
2021/11/13 11:53:52;;;;;;;10.05;2.80;;;;;;;4.82;71.31;100252.09;4286406;32;22353;-72
2021/11/13 11:56:18;;;;;;;7.28;2.25;;;;;;;4.94;70.99;100275.44;4284484;32;20571;-71
2021/11/13 11:58:45;;;;;;;7.75;1.98;;;;;;;4.90;71.72;100287.31;4285807;32;20117;-72
2021/11/13 12:01:31;;;;;;;8.18;2.00;;;;;;;4.88;72.20;100289.22;4478061;28;20055;-71
2021/11/13 12:04:09;;;;;;;6.15;1.90;;;;;;;4.68;72.69;100293.19;5036618;28;20520;-73
2021/11/13 12:06:58;;;;;;;8.50;2.28;;;;;;;4.73;72.66;100292.88;5028889;28;20094;-72
2021/11/13 12:09:24;;;;;;;8.10;2.25;;;;;;;4.68;72.51;100282.47;5041384;28;20095;-71
2021/11/13 12:12:13;;;;;;;10.93;2.20;;;;;;;4.62;72.42;100300.75;5028180;28;20084;-72
2021/11/13 12:14:40;;;;;;;6.95;1.95;;;;;;;4.46;72.93;100299.03;5029785;28;20049;-73
2021/11/13 12:17:34;;;;;;;7.05;1.98;;;;;;;4.37;73.02;100304.09;5044085;28;20053;-73
2021/11/13 12:20:14;;;;;;;5.78;1.83;;;;;;;4.20;72.59;100291.75;5062209;28;20045;-72
2021/11/13 12:23:06;;;;;;;8.27;2.00;;;;;;;4.15;72.53;100281.34;5029615;28;20494;-73
2021/11/13 12:25:36;;;;;;;7.70;2.03;;;;;;;4.37;72.40;100304.09;5027150;28;20042;-73
2021/11/13 12:28:07;;;;;;;7.47;2.30;;;;;;;4.42;71.51;100312.69;5027806;28;20045;-71
2021/11/13 12:30:53;;;;;;;6.90;1.80;;;;;;;4.37;71.66;100315.66;5044450;28;20049;-72
2021/11/13 12:33:25;;;;;;;5.78;1.63;;;;;;;4.30;71.33;100319.69;5062085;28;20132;-71
2021/11/13 12:35:51;;;;;;;5.90;1.70;;;;;;;4.07;71.10;100286.31;5029242;28;20038;-72
2021/11/13 12:38:40;;;;;;;7.22;2.50;;;;;;;4.21;72.11;100328.28;5042993;28;20053;-71
2021/11/13 12:41:12;;;;;;;7.47;2.08;;;;;;;4.29;71.33;100334.03;5026162;28;20046;-71
2021/11/13 12:43:55;;;;;;;8.20;2.30;;;;;;;4.25;70.96;100336.03;5059523;28;20099;-72
2021/11/13 12:46:25;;;;;;;6.82;2.03;;;;;;;4.30;71.22;100341.09;5028935;28;20054;-72
2021/11/13 12:49:22;;;;;;;7.57;2.20;;;;;;;4.30;70.97;100346.44;5028571;28;20499;-71
2021/11/13 12:51:54;;;;;;;13.85;4.65;;;;;;;4.48;70.07;100339.09;5028824;28;20045;-72
2021/11/13 12:54:24;;;;;;;8.25;2.17;;;;;;;4.43;70.89;100347.41;5060111;28;20053;-71
2021/11/13 12:56:56;;;;;;;7.97;2.47;;;;;;;4.38;70.57;100349.50;5025984;28;20049;-71
2021/11/13 12:59:26;;;;;;;12.88;3.30;;;;;;;4.22;71.31;100359.44;5044110;28;20042;-71
2021/11/13 13:02:00;;;;;;;9.05;2.97;;;;;;;4.22;71.08;100348.75;5027965;28;20071;-74
2021/11/13 13:04:31;;;;;;;7.50;2.53;;;;;;;4.05;70.41;100320.31;5042257;28;20045;-71
2021/11/13 13:06:57;;;;;;;8.70;2.17;;;;;;;4.06;70.94;100349.66;5059446;28;20046;-72
2021/11/13 13:09:23;;;;;;;14.65;3.97;;;;;;;4.14;70.83;100361.72;5027354;28;20069;-73
2021/11/13 13:11:53;;;;;;;8.57;2.38;;;;;;;3.99;71.05;100345.66;5028920;28;20134;-69
2021/11/13 13:14:24;;;;;;;8.32;2.22;;;;;;;4.11;71.39;100362.75;5060837;28;20041;-72
2021/11/13 13:16:50;;;;;;;12.38;2.55;;;;;;;4.08;71.27;100376.31;5060613;28;20037;-71
2021/11/13 13:19:16;;;;;;;11.70;3.80;;;;;;;4.05;70.74;100385.38;5028513;28;20395;-72
2021/11/13 13:21:51;;;;;;;9.38;2.85;;;;;;;4.08;71.02;100382.53;5027524;28;20044;-73
2021/11/13 13:24:18;;;;;;;8.43;2.40;;;;;;;4.06;70.82;100394.28;5027127;28;20041;-72
2021/11/13 13:26:46;;;;;;;9.70;3.20;;;;;;;3.69;70.39;100340.28;5028151;28;20037;-72
2021/11/13 13:29:14;;;;;;;9.93;3.05;;;;;;;3.94;70.38;100398.53;5060451;28;20053;-71
2021/11/13 13:31:40;;;;;;;10.25;3.70;;;;;;;3.90;71.60;100394.31;5028689;28;20042;-72
2021/11/13 13:34:06;;;;;;;10.18;3.35;;;;;;;3.61;71.58;100348.75;5060781;28;20096;-72
2021/11/13 13:36:44;;;;;;;8.90;2.55;;;;;;;3.83;72.08;100395.63;5026287;28;20048;-72
2021/11/13 13:39:11;;;;;;;9.30;2.97;;;;;;;3.80;72.39;100395.81;5025039;28;20052;-72
2021/11/13 13:41:40;;;;;;;7.30;2.38;;;;;;;3.85;71.66;100399.09;5042807;28;20041;-71
2021/11/13 13:44:06;;;;;;;9.43;2.55;;;;;;;3.81;71.78;100401.09;5039758;28;20041;-72
2021/11/13 13:46:42;;;;;;;9.02;2.50;;;;;;;3.81;71.95;100394.88;5026847;28;20176;-71
2021/11/13 13:49:13;;;;;;;12.70;2.92;;;;;;;3.75;71.66;100395.22;5027242;28;20418;-71
2021/11/13 13:51:50;;;;;;;12.40;2.85;;;;;;;3.79;71.97;100404.78;5059583;28;20507;-72
2021/11/13 13:54:20;;;;;;;8.25;2.63;;;;;;;3.87;72.08;100403.38;5027140;28;20054;-75
2021/11/13 13:56:46;;;;;;;;;;;;;;;3.81;72.73;100408.25;5029055;28;20101;-71
2021/11/13 13:59:35;;;;;;;7.82;2.30;;;;;;;3.84;72.07;100408.09;5060122;28;19929;-71
2021/11/13 14:02:16;;;;;;;7.20;2.40;;;;;;;3.85;71.60;100415.16;5025134;28;20052;-71
2021/11/13 14:04:44;;;;;;;8.55;2.40;;;;;;;3.90;70.81;100415.72;5026811;28;20057;-72
2021/11/13 14:07:20;;;;;;;8.48;2.20;;;;;;;3.91;70.74;100425.47;5028142;28;20150;-73
2021/11/13 14:10:07;;;;;;;9.32;2.45;;;;;;;3.80;71.16;100419.88;5058011;28;20499;-72
2021/11/13 14:12:51;;;;;;;21.25;4.30;;;;;;;3.76;71.74;100424.53;5022272;28;20030;-72
2021/11/13 14:15:19;;;;;;;10.88;3.17;;;;;;;3.75;71.10;100430.00;5027737;28;20415;-67
2021/11/13 14:17:46;;;;;;;15.80;3.05;;;;;;;3.73;71.32;100427.44;5059359;28;20045;-70
2021/11/13 14:20:20;;;;;;;17.80;5.57;;;;;;;3.47;71.32;100390.59;5026650;28;20046;-72
2021/11/13 14:22:56;;;;;;;10.93;2.22;;;;;;;3.69;70.87;100431.19;5056680;28;20156;-71
2021/11/13 14:25:23;;;;;;;9.13;2.70;;;;;;;3.69;70.78;100430.34;5021966;28;20111;-70
2021/11/13 14:27:49;;;;;;;11.07;3.10;;;;;;;3.73;71.02;100442.56;5042746;28;20089;-71
2021/11/13 14:30:15;;;;;;;9.73;2.80;;;;;;;3.67;70.94;100437.59;5025321;28;20033;-72
2021/11/13 14:32:50;;;;;;;17.30;3.17;;;;;;;3.52;71.47;100440.19;5028288;28;20384;-71
2021/11/13 14:35:17;;;;;;;14.20;3.67;;;;;;;3.44;72.32;100447.78;5028741;28;20042;-72
2021/11/13 14:37:44;;;;;;;11.60;3.65;;;;;;;3.51;71.73;100458.97;5030668;28;20136;-71
2021/11/13 14:40:11;;;;;;;15.15;4.32;;;;;;;3.39;72.18;100439.16;5031138;28;20088;-71
2021/11/13 14:42:38;;;;;;;12.15;3.58;;;;;;;3.33;72.09;100440.38;5043792;28;20045;-73
2021/11/13 14:45:06;;;;;;;16.02;4.05;;;;;;;3.47;72.58;100468.97;5063785;28;20073;-72
2021/11/13 14:47:39;;;;;;;18.55;3.72;;;;;;;3.33;71.78;100451.06;5031587;28;20505;-72
2021/11/13 14:50:12;;;;;;;10.25;2.83;;;;;;;3.39;71.19;100444.50;5030086;28;20049;-71
2021/11/13 14:52:51;;;;;;;8.90;2.50;;;;;;;3.62;71.16;100473.50;5029884;28;20076;-72
2021/11/13 14:55:17;;;;;;;14.82;3.10;;;;;;;3.62;71.84;100484.19;5031263;28;20053;-72
2021/11/13 14:57:48;;;;;;;12.02;2.80;;;;;;;3.56;72.49;100489.88;5026381;28;20067;-71
2021/11/13 15:00:38;;;;;;;10.20;3.42;;;;;;;3.42;72.54;100465.72;5063151;28;20601;-71
2021/11/13 15:03:19;;;;;;;9.55;3.05;;;;;;;3.50;72.22;100479.50;5025125;28;20041;-72
2021/11/13 15:05:54;;;;;;;10.95;2.58;;;;;;;3.60;71.96;100491.41;5030740;28;20510;-72
2021/11/13 15:08:25;;;;;;;10.77;2.40;;;;;;;3.48;71.86;100465.38;5030760;28;20533;-73
2021/11/13 15:10:54;;;;;;;9.57;3.38;;;;;;;3.45;72.22;100476.25;5061779;28;20080;-72
2021/11/13 15:13:22;;;;;;;7.55;2.33;;;;;;;3.70;72.05;100509.63;5031989;28;20249;-72
2021/11/13 15:15:49;;;;;;;18.77;7.75;;;;;;;3.70;71.91;100512.31;5039440;28;20145;-74
2021/11/13 15:18:15;;;;;;;10.95;3.03;;;;;;;3.67;71.88;100518.69;5048881;28;20099;-72
2021/11/13 15:20:41;;;;;;;9.93;2.92;;;;;;;3.68;72.48;100524.88;5079357;28;20045;-71
2021/11/13 15:23:07;;;;;;;20.02;4.18;;;;;;;3.62;72.72;100531.44;5031535;28;20037;-71
2021/11/13 15:25:41;;;;;;;9.77;2.85;;;;;;;3.56;73.34;100535.31;5077470;28;20045;-70
2021/11/13 15:28:14;;;;;;;11.50;2.90;;;;;;;3.54;73.88;100529.16;5063195;28;20049;-71
2021/11/13 15:30:46;;;;;;;13.30;4.18;;;;;;;3.56;74.05;100534.44;5062366;28;20053;-70
2021/11/13 15:33:14;;;;;;;8.52;3.00;;;;;;;3.37;74.32;100511.41;5062829;28;20037;-72
2021/11/13 15:35:46;;;;;;;14.88;2.92;;;;;;;3.52;73.74;100532.91;5062872;28;20147;-73
2021/11/13 15:38:23;;;;;;;11.90;3.30;;;;;;;3.51;74.18;100545.41;5029712;28;20387;-72
2021/11/13 15:40:49;;;;;;;9.38;2.50;;;;;;;3.51;74.06;100540.06;5028820;28;20052;-72
2021/11/13 15:43:18;;;;;;;10.23;3.28;;;;;;;3.35;73.89;100501.75;5030338;28;20052;-72
2021/11/13 15:45:57;;;;;;;11.93;4.25;;;;;;;3.61;74.37;100545.75;5060682;28;20605;-71
2021/11/13 15:48:25;;;;;;;10.52;2.38;;;;;;;3.53;73.26;100522.09;5024623;28;20522;-71
2021/11/13 15:51:04;;;;;;;10.32;3.03;;;;;;;3.60;73.39;100544.88;5030485;28;20050;-72
2021/11/13 15:53:45;;;;;;;10.18;2.70;;;;;;;3.38;73.59;100517.63;5062401;28;20045;-72
2021/11/13 15:56:17;;;;;;;14.93;3.33;;;;;;;3.30;74.04;100525.19;5028287;28;20095;-71
2021/11/13 15:58:46;;;;;;;11.13;3.40;;;;;;;3.43;73.81;100542.25;5030152;28;20120;-71
2021/11/13 16:01:13;;;;;;;12.57;2.97;;;;;;;3.39;73.73;100540.72;5042743;28;20045;-71
2021/11/13 16:03:40;;;;;;;11.70;2.55;;;;;;;3.12;74.20;100519.03;5061722;28;20087;-70
2021/11/13 16:06:06;;;;;;;7.97;2.90;;;;;;;3.42;73.61;100564.59;5060462;28;20119;-74
2021/11/13 16:08:36;;;;;;;9.07;2.97;;;;;;;3.42;73.40;100556.59;5029488;28;20141;-71
2021/11/13 16:11:07;;;;;;;9.15;3.08;;;;;;;3.40;73.75;100569.19;5026177;28;20045;-68
2021/11/13 16:13:34;;;;;;;9.35;3.20;;;;;;;3.39;73.69;100570.97;5053622;28;20062;-71
2021/11/13 16:16:00;;;;;;;16.52;3.55;;;;;;;3.43;73.58;100587.72;5020960;28;20045;-70
2021/11/13 16:18:26;;;;;;;14.15;4.53;;;;;;;3.43;73.18;100582.34;5060084;28;20053;-70
2021/11/13 16:20:57;;;;;;;14.05;3.95;;;;;;;3.33;73.83;100578.47;5045634;28;20043;-69
2021/11/13 16:23:24;;;;;;;15.50;4.30;;;;;;;3.13;74.18;100561.69;5080538;28;20041;-70
2021/11/13 16:25:51;;;;;;;8.02;3.00;;;;;;;3.17;73.92;100572.22;5029164;28;20045;-69
2021/11/13 16:28:18;;;;;;;9.30;3.22;;;;;;;3.17;74.18;100588.25;5061977;28;20104;-70
2021/11/13 16:30:45;;;;;;;12.02;3.50;;;;;;;3.14;74.22;100584.81;5044397;28;20046;-73
2021/11/13 16:33:12;;;;;;;13.25;2.85;;;;;;;3.11;74.54;100579.63;5047468;28;20041;-73
2021/11/13 16:35:39;;;;;;;11.20;2.60;;;;;;;3.21;74.16;100595.16;5033053;28;20045;-79
2021/11/13 16:38:08;;;;;;;10.25;3.00;;;;;;;2.64;73.90;100499.34;5012304;28;20069;-80
2021/11/13 16:40:39;;;;;;;9.50;2.85;;;;;;;3.23;74.20;100601.28;5025456;28;20041;-77
2021/11/13 16:43:05;;;;;;;9.77;2.55;;;;;;;3.26;73.92;100590.44;5095872;28;20140;-71
2021/11/13 16:45:35;;;;;;;12.85;3.03;;;;;;;3.24;73.92;100590.50;5057513;28;20060;-80
2021/11/13 16:48:02;;;;;;;19.83;6.15;;;;;;;3.31;74.20;100596.41;5043976;28;20049;-79
2021/11/13 16:50:30;;;;;;;13.18;3.72;;;;;;;3.28;74.42;100596.56;5032415;28;20140;-79
2021/11/13 16:52:56;;;;;;;13.32;3.92;;;;;;;3.30;74.89;100600.03;5039499;28;20037;-79
2021/11/13 16:55:22;;;;;;;16.23;3.28;;;;;;;3.36;74.79;100605.00;5042081;28;20444;-75
2021/11/13 16:57:48;;;;;;;15.35;3.47;;;;;;;3.25;75.04;100602.06;5020402;28;20057;-78
2021/11/13 17:00:15;;;;;;;14.95;3.58;;;;;;;3.24;75.92;100611.03;5038464;28;20041;-79
2021/11/13 17:02:41;;;;;;;14.20;3.67;;;;;;;3.27;75.63;100617.06;5045457;28;20041;-78
2021/11/13 17:05:07;;;;;;;17.20;4.03;;;;;;;3.29;75.65;100608.97;5010253;28;20072;-80
2021/11/13 17:07:33;;;;;;;14.20;4.00;;;;;;;3.29;75.63;100617.88;5076657;28;20041;-76
2021/11/13 17:09:59;;;;;;;12.30;3.25;;;;;;;3.25;75.71;100607.41;5042332;28;20061;-76
2021/11/13 17:12:25;;;;;;;12.00;3.00;;;;;;;3.30;75.58;100621.41;5008607;28;20108;-75
2021/11/13 17:14:51;;;;;;;10.63;2.95;;;;;;;3.33;75.40;100615.91;5031082;28;20063;-77
2021/11/13 17:17:18;;;;;;;11.02;3.20;;;;;;;3.27;75.78;100613.53;5030799;28;20045;-78
2021/11/13 17:19:44;;;;;;;11.60;3.80;;;;;;;3.15;75.91;100596.34;5028697;28;20060;-77
2021/11/13 17:22:10;;;;;;;16.83;4.00;;;;;;;3.33;75.97;100626.59;5046569;28;20077;-79
2021/11/13 17:24:36;;;;;;;11.30;3.78;;;;;;;3.30;75.87;100632.94;5047502;28;20471;-79
2021/11/13 17:27:02;;;;;;;11.48;3.28;;;;;;;3.26;75.67;100620.69;5011129;28;20685;-79
2021/11/13 17:29:29;;;;;;;10.93;3.83;;;;;;;3.24;75.61;100627.06;4993927;28;20050;-80
2021/11/13 17:31:55;;;;;;;12.25;3.53;;;;;;;3.17;75.90;100625.66;5058173;28;20072;-77
2021/11/13 17:34:21;;;;;;;13.35;2.72;;;;;;;3.20;75.76;100641.53;5043535;28;20041;-80
2021/11/13 17:36:47;;;;;;;7.57;2.20;;;;;;;3.12;75.62;100625.91;5046674;28;20045;-81
2021/11/13 17:39:12;;;;;;;8.20;2.50;;;;;;;3.18;75.53;100635.38;5015951;28;20056;-79
2021/11/13 17:41:41;;;;;;;8.02;2.60;;;;;;;3.16;75.71;100645.31;5032555;28;20038;-77
2021/11/13 17:44:08;;;;;;;13.90;3.95;;;;;;;3.00;75.64;100627.41;5051435;28;20044;-78
2021/11/13 17:46:35;;;;;;;9.35;2.90;;;;;;;3.13;75.70;100647.19;5045392;28;20018;-78
2021/11/13 17:49:02;;;;;;;10.63;3.25;;;;;;;3.17;75.94;100652.38;5038872;28;20033;-79
2021/11/13 17:51:28;;;;;;;8.45;3.00;;;;;;;3.16;75.02;100639.97;5038610;28;20085;-77
2021/11/13 17:53:54;;;;;;;13.07;3.80;;;;;;;3.01;75.29;100609.56;5063977;28;20037;-73
2021/11/13 17:56:19;;;;;;;12.25;3.40;;;;;;;3.26;75.92;100651.91;5044329;28;20064;-78
2021/11/13 17:58:45;;;;;;;10.38;3.88;;;;;;;3.05;75.91;100611.13;5058219;28;20057;-80
2021/11/13 18:01:14;;;;;;;13.50;3.47;;;;;;;3.00;75.78;100619.38;5040220;28;20081;-77
2021/11/13 18:03:41;;;;;;;9.43;3.25;;;;;;;3.27;75.79;100664.31;5044213;28;20072;-78
2021/11/13 18:06:07;;;;;;;9.35;3.50;;;;;;;3.19;76.02;100648.69;5059964;28;20021;-82
2021/11/13 18:08:34;;;;;;;14.50;3.47;;;;;;;3.14;76.18;100648.94;5047880;28;20044;-77
2021/11/13 18:11:01;;;;;;;9.15;3.25;;;;;;;3.17;75.92;100652.38;5080158;28;20053;-76
2021/11/13 18:13:28;;;;;;;12.13;3.35;;;;;;;3.11;75.84;100648.22;5048632;28;20089;-80
2021/11/13 18:15:54;;;;;;;8.60;2.50;;;;;;;3.13;75.35;100640.97;5061598;28;20037;-73
2021/11/13 18:18:21;;;;;;;9.88;3.17;;;;;;;3.21;75.43;100654.78;5063080;28;20089;-79
2021/11/13 18:20:47;;;;;;;13.27;3.00;;;;;;;3.26;75.39;100651.91;5047910;28;20085;-76
2021/11/13 18:23:13;;;;;;;10.50;3.55;;;;;;;3.23;75.18;100647.56;5066204;28;20104;-78
2021/11/13 18:25:40;;;;;;;10.15;3.05;;;;;;;3.19;75.71;100655.84;5029659;28;20033;-77
2021/11/13 18:28:20;;;;;;;11.75;3.58;;;;;;;3.18;76.09;100651.41;5052236;28;20025;-80
2021/11/13 18:30:48;;;;;;;13.50;3.53;;;;;;;3.28;76.45;100660.69;5082673;28;20105;-80
2021/11/13 18:33:14;;;;;;;12.75;2.97;;;;;;;3.13;75.72;100663.19;5081864;28;20045;-77
2021/11/13 18:35:44;;;;;;;9.63;3.03;;;;;;;3.20;75.81;100654.88;5079208;28;20040;-79
2021/11/13 18:38:11;;;;;;;;;;;;;;;3.09;75.73;100671.47;5047215;28;20111;-78
2021/11/13 18:40:39;;;;;;;11.02;3.05;;;;;;;2.86;76.35;100632.59;5082362;28;19984;-69
2021/11/13 18:43:05;;;;;;;9.80;3.00;;;;;;;2.91;76.41;100635.88;5080871;28;20581;-80
2021/11/13 18:45:31;;;;;;;20.45;3.30;;;;;;;3.01;75.89;100647.81;5059441;28;20144;-81
2021/11/13 18:47:57;;;;;;;13.43;3.55;;;;;;;3.12;75.93;100658.81;5073020;28;20053;-75
2021/11/13 18:50:23;;;;;;;14.07;3.63;;;;;;;3.09;75.51;100660.78;5037552;28;20074;-76
2021/11/13 18:52:50;;;;;;;11.68;3.00;;;;;;;3.08;75.23;100675.94;5027547;28;20128;-77
2021/11/13 18:55:16;;;;;;;10.13;3.60;;;;;;;2.97;74.82;100664.94;5043462;28;20056;-78
2021/11/13 18:57:42;;;;;;;11.38;3.28;;;;;;;3.02;75.03;100675.38;5047945;28;20046;-77
2021/11/13 19:00:12;;;;;;;13.52;3.00;;;;;;;3.02;74.25;100676.25;5019150;28;20994;-73
2021/11/13 19:02:39;;;;;;;8.65;2.97;;;;;;;3.04;73.87;100685.06;5064085;28;20042;-76
2021/11/13 19:05:05;;;;;;;9.75;3.25;;;;;;;2.99;74.32;100681.75;5063305;28;20034;-77
2021/11/13 19:07:31;;;;;;;11.05;3.28;;;;;;;3.04;74.52;100686.88;5028650;28;20054;-75
2021/11/13 19:09:57;;;;;;;12.65;3.28;;;;;;;2.91;73.07;100659.91;5059281;28;20101;-75
2021/11/13 19:12:24;;;;;;;10.52;3.38;;;;;;;3.07;73.37;100695.59;5039600;28;20041;-74
2021/11/13 19:14:50;;;;;;;8.98;3.22;;;;;;;3.07;72.65;100700.94;5026220;28;20049;-74
2021/11/13 19:17:16;;;;;;;7.45;2.42;;;;;;;3.10;72.61;100690.06;5061927;28;20050;-75
2021/11/13 19:19:43;;;;;;;9.18;2.83;;;;;;;3.08;72.92;100691.97;5014657;28;20129;-78
2021/11/13 19:22:10;;;;;;;9.40;2.75;;;;;;;2.98;72.76;100682.69;5053427;28;20045;-71
2021/11/13 19:24:36;;;;;;;8.65;3.13;;;;;;;3.12;72.71;100696.22;5050660;28;20049;-75
2021/11/13 19:27:08;;;;;;;11.25;3.05;;;;;;;3.05;72.68;100697.47;5024376;28;20067;-76
2021/11/13 19:29:34;;;;;;;11.75;2.90;;;;;;;3.13;72.62;100697.94;5047624;28;20075;-76
2021/11/13 19:32:00;;;;;;;13.98;3.00;;;;;;;2.98;72.04;100685.38;5030256;28;20066;-76
2021/11/13 19:34:26;;;;;;;8.40;2.25;;;;;;;3.01;72.45;100701.25;5043504;28;20049;-74
2021/11/13 19:36:53;;;;;;;7.88;2.72;;;;;;;2.95;72.50;100711.34;5042782;28;20403;-76
2021/11/13 19:39:19;;;;;;;7.93;2.70;;;;;;;2.98;73.11;100712.06;5052717;28;20441;-72
2021/11/13 19:41:46;;;;;;;13.40;3.22;;;;;;;2.97;73.11;100710.34;5032911;28;20072;-75
2021/11/13 19:44:12;;;;;;;7.97;2.38;;;;;;;2.74;73.29;100670.56;5052186;28;20041;-75
2021/11/13 19:46:38;;;;;;;9.75;2.88;;;;;;;2.98;73.48;100713.88;5044630;28;20256;-73
2021/11/13 19:49:06;;;;;;;8.07;2.58;;;;;;;3.01;73.83;100727.94;5029602;28;20156;-76
2021/11/13 19:51:32;;;;;;;7.97;2.75;;;;;;;3.01;74.43;100722.59;5054366;28;20056;-72
2021/11/13 19:53:58;;;;;;;8.00;2.60;;;;;;;2.89;74.92;100733.91;5028653;28;20431;-77
2021/11/13 19:56:28;;;;;;;8.05;2.47;;;;;;;2.69;75.97;100715.31;5024103;28;20073;-76
2021/11/13 19:58:54;;;;;;;7.80;2.67;;;;;;;2.70;76.61;100712.56;5058940;28;20091;-71
2021/11/13 20:01:24;;;;;;;7.57;2.58;;;;;;;2.72;77.15;100718.72;5035886;28;20084;-77
2021/11/13 20:03:52;;;;;;;9.55;2.85;;;;;;;2.34;77.75;100669.84;5050400;28;20077;-67
2021/11/13 20:06:19;;;;;;;9.32;3.22;;;;;;;2.54;78.04;100712.44;5025043;28;20048;-69
2021/11/13 20:08:45;;;;;;;7.32;2.83;;;;;;;2.47;77.77;100713.69;5044538;28;20045;-80
2021/11/13 20:11:11;;;;;;;9.18;3.20;;;;;;;2.19;78.73;100700.78;5062151;28;20119;-73
2021/11/13 20:13:37;;;;;;;7.70;2.88;;;;;;;2.33;78.55;100732.16;4993238;28;20389;-78
2021/11/13 20:16:03;;;;;;;10.57;3.60;;;;;;;2.05;79.07;100706.78;5019399;28;20550;-76
2021/11/13 20:18:30;;;;;;;10.02;3.13;;;;;;;2.05;79.80;100730.78;5067583;28;20049;-73
2021/11/13 20:20:58;;;;;;;13.30;3.80;;;;;;;1.96;80.19;100736.53;5023233;28;20029;-76
2021/11/13 20:23:24;;;;;;;9.30;3.70;;;;;;;1.73;79.80;100712.72;5020821;28;20054;-73
2021/11/13 20:25:50;;;;;;;10.43;2.90;;;;;;;1.82;80.06;100714.97;5028214;28;20034;-77
2021/11/13 20:28:18;;;;;;;9.60;3.65;;;;;;;2.06;79.85;100739.66;5063951;28;20041;-72
2021/11/13 20:30:44;;;;;;;13.60;3.70;;;;;;;2.07;80.03;100739.56;5014777;28;20043;-72
2021/11/13 20:33:11;;;;;;;8.43;2.75;;;;;;;2.21;78.78;100746.06;5018121;28;20453;-75
2021/11/13 20:35:38;;;;;;;8.73;3.17;;;;;;;2.31;78.37;100734.91;5015559;28;20633;-73
2021/11/13 20:38:14;;;;;;;11.98;2.90;;;;;;;2.33;78.08;100740.16;5055656;28;20042;-75
2021/11/13 20:40:42;;;;;;;11.95;3.08;;;;;;;2.37;77.53;100741.75;5025371;28;20530;-74